sensor_id;sensor_type;location;lat;lon;timestamp;pressure;altitude;pressure_sealevel;temperature;humidity
42067;BME280;27734;47.028;28.820;2022-11-10T00:01:42;101311.23;;;7.24;77.05
42067;BME280;27734;47.028;28.820;2022-11-10T00:04:32;101308.42;;;7.20;76.97
42067;BME280;27734;47.028;28.820;2022-11-10T00:07:24;101311.13;;;7.22;77.10
42067;BME280;27734;47.028;28.820;2022-11-10T00:10:15;101310.24;;;7.22;77.12
42067;BME280;27734;47.028;28.820;2022-11-10T00:13:05;101309.22;;;7.19;77.37
42067;BME280;27734;47.028;28.820;2022-11-10T00:15:56;101309.13;;;7.18;77.22
42067;BME280;27734;47.028;28.820;2022-11-10T00:19:04;101304.73;;;7.17;77.45
42067;BME280;27734;47.028;28.820;2022-11-10T00:21:54;101311.73;;;7.18;77.69
42067;BME280;27734;47.028;28.820;2022-11-10T00:24:44;101305.63;;;7.17;77.65
42067;BME280;27734;47.028;28.820;2022-11-10T00:27:35;101306.42;;;7.16;78.01
42067;BME280;27734;47.028;28.820;2022-11-10T00:30:24;101313.36;;;7.16;77.50
42067;BME280;27734;47.028;28.820;2022-11-10T00:33:14;101300.21;;;7.14;77.67
42067;BME280;27734;47.028;28.820;2022-11-10T00:36:05;101297.61;;;7.14;77.66
42067;BME280;27734;47.028;28.820;2022-11-10T00:38:55;101294.10;;;7.14;77.91
42067;BME280;27734;47.028;28.820;2022-11-10T00:41:49;101287.95;;;7.13;78.19
42067;BME280;27734;47.028;28.820;2022-11-10T00:44:39;101295.78;;;7.13;78.28
42067;BME280;27734;47.028;28.820;2022-11-10T00:47:29;101297.51;;;7.13;78.22
42067;BME280;27734;47.028;28.820;2022-11-10T00:50:19;101293.08;;;7.12;78.41
42067;BME280;27734;47.028;28.820;2022-11-10T00:53:08;101288.79;;;7.12;78.37
42067;BME280;27734;47.028;28.820;2022-11-10T00:55:58;101287.86;;;7.12;78.23
42067;BME280;27734;47.028;28.820;2022-11-10T00:58:48;101286.97;;;7.11;78.16
42067;BME280;27734;47.028;28.820;2022-11-10T01:01:38;101294.70;;;7.10;78.34
42067;BME280;27734;47.028;28.820;2022-11-10T01:04:28;101297.22;;;7.08;78.54
42067;BME280;27734;47.028;28.820;2022-11-10T01:07:17;101295.41;;;7.07;78.48
42067;BME280;27734;47.028;28.820;2022-11-10T01:10:08;101296.33;;;7.08;78.82
42067;BME280;27734;47.028;28.820;2022-11-10T01:12:58;101296.14;;;7.05;78.66
42067;BME280;27734;47.028;28.820;2022-11-10T01:16:08;101295.21;;;7.04;78.65
42067;BME280;27734;47.028;28.820;2022-11-10T01:19:00;101296.84;;;7.02;78.67
42067;BME280;27734;47.028;28.820;2022-11-10T01:21:52;101297.63;;;7.01;78.88
42067;BME280;27734;47.028;28.820;2022-11-10T01:24:41;101299.34;;;7.00;78.66
42067;BME280;27734;47.028;28.820;2022-11-10T01:27:31;101301.06;;;7.00;78.50
42067;BME280;27734;47.028;28.820;2022-11-10T01:30:21;101303.67;;;7.00;79.03
42067;BME280;27734;47.028;28.820;2022-11-10T01:33:10;101299.25;;;6.99;79.05
42067;BME280;27734;47.028;28.820;2022-11-10T01:36:01;101298.36;;;6.98;78.88
42067;BME280;27734;47.028;28.820;2022-11-10T01:38:50;101293.05;;;6.97;79.01
42067;BME280;27734;47.028;28.820;2022-11-10T01:41:40;101292.95;;;6.95;79.22
42067;BME280;27734;47.028;28.820;2022-11-10T01:44:30;101287.63;;;6.94;79.08
42067;BME280;27734;47.028;28.820;2022-11-10T01:47:20;101290.14;;;6.92;79.03
42067;BME280;27734;47.028;28.820;2022-11-10T01:50:09;101296.06;;;6.90;79.27
42067;BME280;27734;47.028;28.820;2022-11-10T01:53:01;101287.34;;;6.89;79.20
42067;BME280;27734;47.028;28.820;2022-11-10T01:55:51;101296.76;;;6.87;79.18
42067;BME280;27734;47.028;28.820;2022-11-10T01:58:45;101304.58;;;6.87;79.38
42067;BME280;27734;47.028;28.820;2022-11-10T02:01:37;101301.87;;;6.86;79.40
42067;BME280;27734;47.028;28.820;2022-11-10T02:04:27;101303.50;;;6.83;79.65
42067;BME280;27734;47.028;28.820;2022-11-10T02:07:21;101304.33;;;6.82;79.55
42067;BME280;27734;47.028;28.820;2022-11-10T02:10:16;101303.40;;;6.82;79.48
42067;BME280;27734;47.028;28.820;2022-11-10T02:13:06;101295.48;;;6.80;79.48
42067;BME280;27734;47.028;28.820;2022-11-10T02:15:56;101310.14;;;6.78;79.80
42067;BME280;27734;47.028;28.820;2022-11-10T02:18:46;101303.11;;;6.77;79.51
42067;BME280;27734;47.028;28.820;2022-11-10T02:21:36;101305.72;;;6.77;79.48
42067;BME280;27734;47.028;28.820;2022-11-10T02:24:26;101311.76;;;6.76;79.66
42067;BME280;27734;47.028;28.820;2022-11-10T02:27:16;101307.33;;;6.75;80.04
42067;BME280;27734;47.028;28.820;2022-11-10T02:30:08;101307.23;;;6.74;80.32
42067;BME280;27734;47.028;28.820;2022-11-10T02:32:58;101316.88;;;6.75;79.64
42067;BME280;27734;47.028;28.820;2022-11-10T02:35:48;101311.66;;;6.75;80.44
42067;BME280;27734;47.028;28.820;2022-11-10T02:38:39;101313.54;;;6.77;80.51
42067;BME280;27734;47.028;28.820;2022-11-10T02:41:28;101318.16;;;6.81;80.25
42067;BME280;27734;47.028;28.820;2022-11-10T02:44:18;101320.08;;;6.84;80.55
42067;BME280;27734;47.028;28.820;2022-11-10T02:47:08;101329.98;;;6.90;80.40
42067;BME280;27734;47.028;28.820;2022-11-10T02:49:58;101320.63;;;6.93;80.81
42067;BME280;27734;47.028;28.820;2022-11-10T02:52:48;101319.93;;;6.96;80.70
42067;BME280;27734;47.028;28.820;2022-11-10T02:55:38;101314.91;;;6.99;80.81
42067;BME280;27734;47.028;28.820;2022-11-10T02:58:28;101315.99;;;7.02;80.78
42067;BME280;27734;47.028;28.820;2022-11-10T03:01:18;101311.89;;;7.06;81.00
42067;BME280;27734;47.028;28.820;2022-11-10T03:04:08;101312.18;;;7.11;80.88
42067;BME280;27734;47.028;28.820;2022-11-10T03:06:58;101318.48;;;7.14;81.22
42067;BME280;27734;47.028;28.820;2022-11-10T03:09:47;101318.67;;;7.17;81.22
42067;BME280;27734;47.028;28.820;2022-11-10T03:12:40;101312.75;;;7.20;81.29
42067;BME280;27734;47.028;28.820;2022-11-10T03:15:30;101317.24;;;7.23;81.36
42067;BME280;27734;47.028;28.820;2022-11-10T03:18:20;101312.22;;;7.26;81.15
42067;BME280;27734;47.028;28.820;2022-11-10T03:21:10;101312.41;;;7.29;81.25
42067;BME280;27734;47.028;28.820;2022-11-10T03:24:00;101305.59;;;7.31;81.46
42067;BME280;27734;47.028;28.820;2022-11-10T03:26:50;101307.56;;;7.35;81.51
42067;BME280;27734;47.028;28.820;2022-11-10T03:29:39;101307.75;;;7.38;81.74
42067;BME280;27734;47.028;28.820;2022-11-10T03:32:29;101311.34;;;7.40;81.61
42067;BME280;27734;47.028;28.820;2022-11-10T03:35:19;101313.16;;;7.41;81.97
42067;BME280;27734;47.028;28.820;2022-11-10T03:38:08;101308.83;;;7.42;82.14
42067;BME280;27734;47.028;28.820;2022-11-10T03:40:58;101316.76;;;7.43;81.86
42067;BME280;27734;47.028;28.820;2022-11-10T03:43:48;101309.75;;;7.42;82.31
42067;BME280;27734;47.028;28.820;2022-11-10T03:46:38;101317.68;;;7.44;82.02
42067;BME280;27734;47.028;28.820;2022-11-10T03:49:28;101313.35;;;7.44;82.65
42067;BME280;27734;47.028;28.820;2022-11-10T03:52:18;101315.16;;;7.45;82.42
42067;BME280;27734;47.028;28.820;2022-11-10T03:55:09;101310.83;;;7.46;82.57
42067;BME280;27734;47.028;28.820;2022-11-10T03:58:02;101310.83;;;7.46;82.56
42067;BME280;27734;47.028;28.820;2022-11-10T04:00:54;101310.83;;;7.46;82.44
42067;BME280;27734;47.028;28.820;2022-11-10T04:03:44;101311.72;;;7.46;82.78
42067;BME280;27734;47.028;28.820;2022-11-10T04:06:34;101313.45;;;7.46;82.28
42067;BME280;27734;47.028;28.820;2022-11-10T04:09:42;101314.34;;;7.46;82.65
42067;BME280;27734;47.028;28.820;2022-11-10T04:12:32;101314.34;;;7.46;83.31
42067;BME280;27734;47.028;28.820;2022-11-10T04:15:39;101316.76;;;7.43;82.99
42067;BME280;27734;47.028;28.820;2022-11-10T04:18:33;101309.75;;;7.42;82.58
42067;BME280;27734;47.028;28.820;2022-11-10T04:21:22;101316.66;;;7.42;82.95
42067;BME280;27734;47.028;28.820;2022-11-10T04:24:12;101313.35;;;7.44;82.92
42067;BME280;27734;47.028;28.820;2022-11-10T04:27:02;101313.35;;;7.44;82.83
42067;BME280;27734;47.028;28.820;2022-11-10T04:29:52;101316.76;;;7.43;83.00
42067;BME280;27734;47.028;28.820;2022-11-10T04:32:42;101307.14;;;7.42;82.54
42067;BME280;27734;47.028;28.820;2022-11-10T04:35:31;101321.98;;;7.43;82.79
42067;BME280;27734;47.028;28.820;2022-11-10T04:38:21;101321.09;;;7.43;83.51
42067;BME280;27734;47.028;28.820;2022-11-10T04:41:11;101320.20;;;7.42;82.87
42067;BME280;27734;47.028;28.820;2022-11-10T04:44:01;101319.47;;;7.45;83.11
42067;BME280;27734;47.028;28.820;2022-11-10T04:46:51;101322.17;;;7.46;83.00
42067;BME280;27734;47.028;28.820;2022-11-10T04:49:41;101321.37;;;7.47;83.11
42067;BME280;27734;47.028;28.820;2022-11-10T04:52:30;101318.86;;;7.49;83.31
42067;BME280;27734;47.028;28.820;2022-11-10T04:55:20;101331.21;;;7.51;83.02
42067;BME280;27734;47.028;28.820;2022-11-10T04:58:10;101336.62;;;7.54;83.24
42067;BME280;27734;47.028;28.820;2022-11-10T05:01:03;101336.72;;;7.56;84.03
42067;BME280;27734;47.028;28.820;2022-11-10T05:03:53;101340.41;;;7.60;83.88
42067;BME280;27734;47.028;28.820;2022-11-10T05:06:43;101340.59;;;7.63;83.76
42067;BME280;27734;47.028;28.820;2022-11-10T05:09:32;101345.12;;;7.65;83.64
42067;BME280;27734;47.028;28.820;2022-11-10T05:12:22;101344.38;;;7.68;83.80
42067;BME280;27734;47.028;28.820;2022-11-10T05:15:12;101345.49;;;7.71;83.79
42067;BME280;27734;47.028;28.820;2022-11-10T05:18:02;101349.18;;;7.75;83.84
42067;BME280;27734;47.028;28.820;2022-11-10T05:20:52;101348.57;;;7.79;83.78
42067;BME280;27734;47.028;28.820;2022-11-10T05:23:41;101353.98;;;7.82;84.00
42067;BME280;27734;47.028;28.820;2022-11-10T05:26:31;101355.06;;;7.86;83.72
42067;BME280;27734;47.028;28.820;2022-11-10T05:29:21;101348.20;;;7.88;83.48
42067;BME280;27734;47.028;28.820;2022-11-10T05:32:12;101360.56;;;7.90;83.49
42067;BME280;27734;47.028;28.820;2022-11-10T05:35:03;101372.98;;;7.95;84.11
42067;BME280;27734;47.028;28.820;2022-11-10T05:37:53;101371.48;;;7.98;83.76
42067;BME280;27734;47.028;28.820;2022-11-10T05:40:43;101373.44;;;8.02;83.80
42067;BME280;27734;47.028;28.820;2022-11-10T05:43:32;101377.97;;;8.05;83.95
42067;BME280;27734;47.028;28.820;2022-11-10T05:46:22;101370.40;;;8.09;83.74
42067;BME280;27734;47.028;28.820;2022-11-10T05:49:13;101370.67;;;8.14;84.01
42067;BME280;27734;47.028;28.820;2022-11-10T05:52:02;101373.47;;;8.17;84.20
42067;BME280;27734;47.028;28.820;2022-11-10T05:54:52;101377.06;;;8.19;83.99
42067;BME280;27734;47.028;28.820;2022-11-10T05:57:44;101375.47;;;8.21;84.04
42067;BME280;27734;47.028;28.820;2022-11-10T06:00:34;101379.06;;;8.23;84.15
42067;BME280;27734;47.028;28.820;2022-11-10T06:03:24;101383.59;;;8.26;83.94
42067;BME280;27734;47.028;28.820;2022-11-10T06:06:14;101388.25;;;8.32;84.02
42067;BME280;27734;47.028;28.820;2022-11-10T06:09:03;101390.25;;;8.36;83.96
42067;BME280;27734;47.028;28.820;2022-11-10T06:11:53;101395.75;;;8.40;84.45
42067;BME280;27734;47.028;28.820;2022-11-10T06:14:43;101399.47;;;8.44;84.03
42067;BME280;27734;47.028;28.820;2022-11-10T06:17:37;101387.38;;;8.46;84.58
42067;BME280;27734;47.028;28.820;2022-11-10T06:20:27;101399.83;;;8.50;84.42
42067;BME280;27734;47.028;28.820;2022-11-10T06:23:17;101400.01;;;8.53;83.91
42067;BME280;27734;47.028;28.820;2022-11-10T06:26:06;101404.62;;;8.57;84.20
42067;BME280;27734;47.028;28.820;2022-11-10T06:28:56;101405.78;;;8.62;84.30
42067;BME280;27734;47.028;28.820;2022-11-10T06:31:46;101398.11;;;8.66;84.55
42067;BME280;27734;47.028;28.820;2022-11-10T06:34:36;101411.38;;;8.69;83.90
42067;BME280;27734;47.028;28.820;2022-11-10T06:37:31;101407.20;;;8.72;84.65
42067;BME280;27734;47.028;28.820;2022-11-10T06:40:23;101411.98;;;8.79;84.63
42067;BME280;27734;47.028;28.820;2022-11-10T06:43:14;101414.78;;;8.83;84.57
42067;BME280;27734;47.028;28.820;2022-11-10T06:46:05;101415.84;;;8.86;84.09
42067;BME280;27734;47.028;28.820;2022-11-10T06:48:55;101416.03;;;8.89;84.53
42067;BME280;27734;47.028;28.820;2022-11-10T06:51:45;101414.59;;;8.94;84.52
42067;BME280;27734;47.028;28.820;2022-11-10T06:54:35;101412.95;;;8.96;84.24
42067;BME280;27734;47.028;28.820;2022-11-10T06:57:25;101417.44;;;8.99;84.55
42067;BME280;27734;47.028;28.820;2022-11-10T07:00:17;101407.98;;;9.01;84.06
42067;BME280;27734;47.028;28.820;2022-11-10T07:03:14;101414.45;;;9.08;83.98
42067;BME280;27734;47.028;28.820;2022-11-10T07:10:39;101411.89;;;9.24;84.08
42067;BME280;27734;47.028;28.820;2022-11-10T07:13:30;101419.08;;;9.28;84.20
42067;BME280;27734;47.028;28.820;2022-11-10T07:20:03;101419.59;;;9.38;83.70
42067;BME280;27734;47.028;28.820;2022-11-10T07:23:00;101410.13;;;9.40;83.83
42067;BME280;27734;47.028;28.820;2022-11-10T07:25:50;101417.31;;;9.44;83.58
42067;BME280;27734;47.028;28.820;2022-11-10T07:28:40;101420.94;;;9.46;84.01
42067;BME280;27734;47.028;28.820;2022-11-10T07:31:31;101416.76;;;9.49;84.13
42067;BME280;27734;47.028;28.820;2022-11-10T07:41:14;101413.58;;;9.71;84.06
42067;BME280;27734;47.028;28.820;2022-11-10T07:44:07;101421.94;;;9.81;83.53
42067;BME280;27734;47.028;28.820;2022-11-10T07:47:01;101416.94;;;9.85;83.41
42067;BME280;27734;47.028;28.820;2022-11-10T07:49:58;101414.16;;;9.99;83.96
42067;BME280;27734;47.028;28.820;2022-11-10T07:52:49;101414.61;;;10.08;83.74
42067;BME280;27734;47.028;28.820;2022-11-10T07:56:00;101419.77;;;10.23;83.70
42067;BME280;27734;47.028;28.820;2022-11-10T07:59:34;101419.78;;;10.39;83.37
42067;BME280;27734;47.028;28.820;2022-11-10T08:03:00;101417.17;;;10.57;83.84
42067;BME280;27734;47.028;28.820;2022-11-10T08:06:14;101417.13;;;10.74;83.32
42067;BME280;27734;47.028;28.820;2022-11-10T08:09:07;101425.68;;;10.88;83.54
42067;BME280;27734;47.028;28.820;2022-11-10T08:12:00;101418.82;;;11.09;83.29
42067;BME280;27734;47.028;28.820;2022-11-10T08:14:55;101432.09;;;11.30;83.69
42067;BME280;27734;47.028;28.820;2022-11-10T08:17:47;101417.27;;;11.50;83.46
42067;BME280;27734;47.028;28.820;2022-11-10T08:20:38;101420.55;;;11.64;83.35
42067;BME280;27734;47.028;28.820;2022-11-10T08:23:29;101412.36;;;11.78;82.98
42067;BME280;27734;47.028;28.820;2022-11-10T08:26:19;101416.13;;;11.83;82.30
42067;BME280;27734;47.028;28.820;2022-11-10T08:29:11;101415.62;;;11.92;82.52
42067;BME280;27734;47.028;28.820;2022-11-10T08:32:02;101416.41;;;12.09;82.31
42067;BME280;27734;47.028;28.820;2022-11-10T08:34:58;101412.44;;;12.18;82.19
42067;BME280;27734;47.028;28.820;2022-11-10T08:38:09;101411.00;;;12.25;81.91
42067;BME280;27734;47.028;28.820;2022-11-10T08:41:16;101420.05;;;12.32;81.55
42067;BME280;27734;47.028;28.820;2022-11-10T08:44:13;101416.98;;;12.42;80.77
42067;BME280;27734;47.028;28.820;2022-11-10T08:47:07;101421.66;;;12.49;81.28
42067;BME280;27734;47.028;28.820;2022-11-10T08:49:59;101406.66;;;12.47;81.00
42067;BME280;27734;47.028;28.820;2022-11-10T08:52:51;101411.72;;;12.63;80.49
42067;BME280;27734;47.028;28.820;2022-11-10T08:55:43;101407.47;;;12.67;79.46
42067;BME280;27734;47.028;28.820;2022-11-10T08:58:34;101411.21;;;12.72;79.79
42067;BME280;27734;47.028;28.820;2022-11-10T09:01:25;101405.09;;;12.73;78.73
42067;BME280;27734;47.028;28.820;2022-11-10T09:04:20;101406.58;;;12.66;79.82
42067;BME280;27734;47.028;28.820;2022-11-10T09:07:14;101400.08;;;12.79;79.76
42067;BME280;27734;47.028;28.820;2022-11-10T09:10:07;101396.87;;;12.86;78.60
42067;BME280;27734;47.028;28.820;2022-11-10T09:13:02;101392.61;;;12.90;78.75
42067;BME280;27734;47.028;28.820;2022-11-10T09:15:58;101398.38;;;13.02;79.25
42067;BME280;27734;47.028;28.820;2022-11-10T09:18:49;101386.25;;;13.06;78.98
42067;BME280;27734;47.028;28.820;2022-11-10T09:21:43;101385.63;;;13.13;77.95
42067;BME280;27734;47.028;28.820;2022-11-10T09:24:33;101376.16;;;13.18;78.29
42067;BME280;27734;47.028;28.820;2022-11-10T09:27:23;101373.76;;;13.24;77.81
42067;BME280;27734;47.028;28.820;2022-11-10T09:30:14;101374.00;;;13.30;78.57
42067;BME280;27734;47.028;28.820;2022-11-10T09:33:06;101368.28;;;13.41;78.26
42067;BME280;27734;47.028;28.820;2022-11-10T09:36:01;101363.36;;;13.50;78.13
42067;BME280;27734;47.028;28.820;2022-11-10T09:38:54;101360.95;;;13.56;77.50
42067;BME280;27734;47.028;28.820;2022-11-10T09:41:48;101369.92;;;13.61;76.89
42067;BME280;27734;47.028;28.820;2022-11-10T09:44:41;101373.02;;;13.74;77.60
42067;BME280;27734;47.028;28.820;2022-11-10T09:47:39;101361.86;;;13.81;77.33
42067;BME280;27734;47.028;28.820;2022-11-10T09:50:38;101364.83;;;13.90;76.67
42067;BME280;27734;47.028;28.820;2022-11-10T09:53:33;101362.41;;;13.96;76.78
42067;BME280;27734;47.028;28.820;2022-11-10T09:56:32;101367.91;;;14.02;76.12
42067;BME280;27734;47.028;28.820;2022-11-10T09:59:26;101362.91;;;14.10;76.17
42067;BME280;27734;47.028;28.820;2022-11-10T10:02:23;101363.06;;;14.15;75.21
42067;BME280;27734;47.028;28.820;2022-11-10T10:05:38;101363.17;;;14.18;75.52
42067;BME280;27734;47.028;28.820;2022-11-10T10:08:42;101356.45;;;14.28;75.27
42067;BME280;27734;47.028;28.820;2022-11-10T10:11:45;101359.47;;;14.38;75.24
42067;BME280;27734;47.028;28.820;2022-11-10T10:14:59;101346.52;;;14.46;74.98
42067;BME280;27734;47.028;28.820;2022-11-10T10:18:08;101345.95;;;14.56;74.02
42067;BME280;27734;47.028;28.820;2022-11-10T10:21:23;101344.42;;;14.62;75.04
42067;BME280;27734;47.028;28.820;2022-11-10T10:24:24;101346.30;;;14.66;74.15
42067;BME280;27734;47.028;28.820;2022-11-10T10:27:30;101351.73;;;14.70;74.38
42067;BME280;27734;47.028;28.820;2022-11-10T10:30:28;101341.31;;;14.75;73.71
42067;BME280;27734;47.028;28.820;2022-11-10T10:33:21;101342.39;;;14.82;73.79
42067;BME280;27734;47.028;28.820;2022-11-10T10:36:23;101335.58;;;14.88;73.86
42067;BME280;27734;47.028;28.820;2022-11-10T10:39:26;101330.44;;;14.93;73.48
42067;BME280;27734;47.028;28.820;2022-11-10T10:42:28;101330.44;;;14.93;72.59
42067;BME280;27734;47.028;28.820;2022-11-10T10:45:23;101321.73;;;14.97;71.68
42067;BME280;27734;47.028;28.820;2022-11-10T10:48:29;101325.39;;;15.01;72.15
42067;BME280;27734;47.028;28.820;2022-11-10T10:51:30;101313.95;;;15.02;70.30
42067;BME280;27734;47.028;28.820;2022-11-10T10:54:31;101320.06;;;14.99;70.36
42067;BME280;27734;47.028;28.820;2022-11-10T10:57:25;101321.78;;;14.99;70.97
42067;BME280;27734;47.028;28.820;2022-11-10T11:00:21;101328.92;;;15.01;71.28
42067;BME280;27734;47.028;28.820;2022-11-10T11:03:26;101313.16;;;15.04;69.91
42067;BME280;27734;47.028;28.820;2022-11-10T11:06:22;101322.98;;;15.08;69.99
42067;BME280;27734;47.028;28.820;2022-11-10T11:09:17;101317.70;;;15.08;68.69
42067;BME280;27734;47.028;28.820;2022-11-10T11:12:11;101320.44;;;15.12;68.80
42067;BME280;27734;47.028;28.820;2022-11-10T11:15:22;101308.94;;;15.11;68.99
42067;BME280;27734;47.028;28.820;2022-11-10T11:18:17;101305.51;;;15.14;69.16
42067;BME280;27734;47.028;28.820;2022-11-10T11:21:19;101308.16;;;15.14;68.80
42067;BME280;27734;47.028;28.820;2022-11-10T11:24:28;101310.75;;;15.12;68.73
42067;BME280;27734;47.028;28.820;2022-11-10T11:27:26;101306.34;;;15.13;68.73
42067;BME280;27734;47.028;28.820;2022-11-10T11:30:25;101308.98;;;15.13;68.43
42067;BME280;27734;47.028;28.820;2022-11-10T11:33:26;101308.16;;;15.14;68.06
42067;BME280;27734;47.028;28.820;2022-11-10T11:36:31;101307.27;;;15.13;68.02
42067;BME280;27734;47.028;28.820;2022-11-10T11:39:37;101302.86;;;15.14;68.44
42067;BME280;27734;47.028;28.820;2022-11-10T11:42:45;101310.84;;;15.15;67.39
42067;BME280;27734;47.028;28.820;2022-11-10T11:45:48;101295.91;;;15.17;67.15
42067;BME280;27734;47.028;28.820;2022-11-10T11:48:58;101300.27;;;15.15;66.35
42067;BME280;27734;47.028;28.820;2022-11-10T11:52:19;101311.73;;;15.16;66.82
42067;BME280;27734;47.028;28.820;2022-11-10T11:58:50;101305.69;;;15.20;65.39
42067;BME280;27734;47.028;28.820;2022-11-10T12:02:08;101305.69;;;15.20;65.09
42067;BME280;27734;47.028;28.820;2022-11-10T12:05:19;101308.33;;;15.20;65.29
42067;BME280;27734;47.028;28.820;2022-11-10T12:08:24;101299.47;;;15.18;65.06
42067;BME280;27734;47.028;28.820;2022-11-10T12:11:44;101308.29;;;15.18;65.27
42067;BME280;27734;47.028;28.820;2022-11-10T12:14:55;101310.05;;;15.18;65.11
42067;BME280;27734;47.028;28.820;2022-11-10T12:17:53;101302.91;;;15.15;64.05
42067;BME280;27734;47.028;28.820;2022-11-10T12:21:04;101302.86;;;15.14;64.59
42067;BME280;27734;47.028;28.820;2022-11-10T12:24:16;101308.06;;;15.10;64.31
42067;BME280;27734;47.028;28.820;2022-11-10T12:27:35;101298.28;;;15.08;63.88
42067;BME280;27734;47.028;28.820;2022-11-10T12:30:31;101306.16;;;15.06;63.63
42067;BME280;27734;47.028;28.820;2022-11-10T12:33:35;101297.34;;;15.06;64.11
42067;BME280;27734;47.028;28.820;2022-11-10T12:36:28;101293.77;;;15.04;63.87
42067;BME280;27734;47.028;28.820;2022-11-10T12:39:23;101298.14;;;15.03;63.06
42067;BME280;27734;47.028;28.820;2022-11-10T12:42:16;101301.66;;;15.02;63.53
42067;BME280;27734;47.028;28.820;2022-11-10T12:45:19;101300.78;;;15.03;64.09
42067;BME280;27734;47.028;28.820;2022-11-10T12:48:41;101304.30;;;15.02;63.99
42067;BME280;27734;47.028;28.820;2022-11-10T12:51:59;101304.25;;;15.01;63.63
42067;BME280;27734;47.028;28.820;2022-11-10T12:54:51;101302.49;;;15.01;63.46
42067;BME280;27734;47.028;28.820;2022-11-10T12:57:49;101306.84;;;14.99;63.60
42067;BME280;27734;47.028;28.820;2022-11-10T13:01:24;101304.06;;;14.95;62.46
42067;BME280;27734;47.028;28.820;2022-11-10T13:04:31;101307.49;;;14.92;62.44
42067;BME280;27734;47.028;28.820;2022-11-10T13:22:10;101315.19;;;14.84;62.56
42067;BME280;27734;47.028;28.820;2022-11-10T13:28:55;101303.53;;;14.78;62.27
42067;BME280;27734;47.028;28.820;2022-11-10T13:31:56;101314.89;;;14.75;62.61
42067;BME280;27734;47.028;28.820;2022-11-10T13:34:48;101314.84;;;14.73;62.52
42067;BME280;27734;47.028;28.820;2022-11-10T13:37:53;101322.72;;;14.72;62.53
42067;BME280;27734;47.028;28.820;2022-11-10T13:48:30;101323.16;;;14.59;61.65
42067;BME280;27734;47.028;28.820;2022-11-10T14:13:48;101337.92;;;14.26;61.99
42067;BME280;27734;47.028;28.820;2022-11-10T14:17:04;101334.19;;;14.19;62.00
42067;BME280;27734;47.028;28.820;2022-11-10T14:20:29;101327.78;;;14.13;61.80
42067;BME280;27734;47.028;28.820;2022-11-10T14:27:49;101343.24;;;14.02;61.97
42067;BME280;27734;47.028;28.820;2022-11-10T14:30:54;101344.78;;;13.95;62.41
42067;BME280;27734;47.028;28.820;2022-11-10T14:33:56;101340.22;;;13.91;62.34
42067;BME280;27734;47.028;28.820;2022-11-10T14:36:55;101342.58;;;13.83;62.62
42067;BME280;27734;47.028;28.820;2022-11-10T14:39:48;101337.14;;;13.79;62.09
42067;BME280;27734;47.028;28.820;2022-11-10T14:43:01;101343.12;;;13.73;62.26
42067;BME280;27734;47.028;28.820;2022-11-10T14:46:26;101347.28;;;13.66;62.42
42067;BME280;27734;47.028;28.820;2022-11-10T14:49:25;101347.05;;;13.60;62.62
42067;BME280;27734;47.028;28.820;2022-11-10T14:52:16;101347.71;;;13.55;61.89
42067;BME280;27734;47.028;28.820;2022-11-10T14:55:12;101344.62;;;13.42;62.27
42067;BME280;27734;47.028;28.820;2022-11-10T14:58:06;101360.55;;;13.45;62.26
42067;BME280;27734;47.028;28.820;2022-11-10T15:01:02;101364.82;;;13.42;61.93
42067;BME280;27734;47.028;28.820;2022-11-10T15:03:54;101362.95;;;13.39;62.46
42067;BME280;27734;47.028;28.820;2022-11-10T15:06:47;101365.41;;;13.35;62.35
42067;BME280;27734;47.028;28.820;2022-11-10T15:09:37;101373.17;;;13.31;62.70
42067;BME280;27734;47.028;28.820;2022-11-10T15:12:44;101365.08;;;13.27;62.30
42067;BME280;27734;47.028;28.820;2022-11-10T15:15:46;101373.76;;;13.24;62.48
42067;BME280;27734;47.028;28.820;2022-11-10T15:18:36;101369.23;;;13.20;62.88
42067;BME280;27734;47.028;28.820;2022-11-10T15:21:31;101377.84;;;13.16;62.59
42067;BME280;27734;47.028;28.820;2022-11-10T15:24:27;101380.36;;;13.13;62.26
42067;BME280;27734;47.028;28.820;2022-11-10T15:27:25;101377.55;;;13.08;62.79
42067;BME280;27734;47.028;28.820;2022-11-10T15:30:23;101377.42;;;13.05;62.85
42067;BME280;27734;47.028;28.820;2022-11-10T15:33:16;101380.91;;;13.04;62.63
42067;BME280;27734;47.028;28.820;2022-11-10T15:36:16;101381.68;;;13.02;62.71
42067;BME280;27734;47.028;28.820;2022-11-10T15:39:21;101384.12;;;12.97;63.12
42067;BME280;27734;47.028;28.820;2022-11-10T15:42:16;101385.75;;;12.93;62.95
42067;BME280;27734;47.028;28.820;2022-11-10T15:45:09;101384.64;;;12.88;62.96
42067;BME280;27734;47.028;28.820;2022-11-10T15:48:01;101391.47;;;12.83;62.93
42067;BME280;27734;47.028;28.820;2022-11-10T15:50:53;101392.17;;;12.79;63.02
42067;BME280;27734;47.028;28.820;2022-11-10T15:53:48;101395.47;;;12.73;63.05
42067;BME280;27734;47.028;28.820;2022-11-10T15:56:38;101397.92;;;12.69;63.02
42067;BME280;27734;47.028;28.820;2022-11-10T15:59:28;101402.92;;;12.63;63.23
42067;BME280;27734;47.028;28.820;2022-11-10T16:02:21;101402.67;;;12.56;63.06
42067;BME280;27734;47.028;28.820;2022-11-10T16:05:12;101403.36;;;12.52;63.46
42067;BME280;27734;47.028;28.820;2022-11-10T16:08:04;101399.72;;;12.49;63.41
42067;BME280;27734;47.028;28.820;2022-11-10T16:10:56;101407.41;;;12.44;63.50
42067;BME280;27734;47.028;28.820;2022-11-10T16:13:46;101409.91;;;12.41;63.35
42067;BME280;27734;47.028;28.820;2022-11-10T16:16:36;101402.58;;;12.34;63.25
42067;BME280;27734;47.028;28.820;2022-11-10T16:19:26;101402.38;;;12.29;63.67
42067;BME280;27734;47.028;28.820;2022-11-10T16:22:16;101408.43;;;12.27;63.40